sensor_id;sensor_type;location;lat;lon;timestamp;P1;P2;P0
26185;PMS7003;20067;48.764;9.176;2022-12-18T00:01:56;47.50;42.00;20.50
26185;PMS7003;20067;48.764;9.176;2022-12-18T00:04:24;44.50;41.50;23.00
26185;PMS7003;20067;48.764;9.176;2022-12-18T00:06:52;54.00;44.50;20.00
26185;PMS7003;20067;48.764;9.176;2022-12-18T00:09:19;51.50;45.00;22.50
26185;PMS7003;20067;48.764;9.176;2022-12-18T00:11:45;53.50;45.00;24.50
26185;PMS7003;20067;48.764;9.176;2022-12-18T00:14:11;41.50;39.00;20.00
26185;PMS7003;20067;48.764;9.176;2022-12-18T00:16:37;46.00;41.50;24.00
26185;PMS7003;20067;48.764;9.176;2022-12-18T00:19:03;45.50;41.50;20.00
26185;PMS7003;20067;48.764;9.176;2022-12-18T00:21:30;61.00;48.50;23.50
26185;PMS7003;20067;48.764;9.176;2022-12-18T00:23:57;47.50;45.00;16.50
26185;PMS7003;20067;48.764;9.176;2022-12-18T00:26:25;49.00;47.50;21.50
26185;PMS7003;20067;48.764;9.176;2022-12-18T00:28:53;59.00;50.50;21.50
26185;PMS7003;20067;48.764;9.176;2022-12-18T00:31:22;47.50;45.50;20.50
26185;PMS7003;20067;48.764;9.176;2022-12-18T00:33:49;55.00;46.50;20.00
26185;PMS7003;20067;48.764;9.176;2022-12-18T00:36:16;46.00;44.00;22.50
26185;PMS7003;20067;48.764;9.176;2022-12-18T00:38:53;53.00;49.50;21.50
26185;PMS7003;20067;48.764;9.176;2022-12-18T00:41:20;56.50;43.00;18.00
26185;PMS7003;20067;48.764;9.176;2022-12-18T00:44:05;53.00;45.50;22.00
26185;PMS7003;20067;48.764;9.176;2022-12-18T00:46:32;61.50;48.00;25.00
26185;PMS7003;20067;48.764;9.176;2022-12-18T00:48:58;65.50;52.00;26.00
26185;PMS7003;20067;48.764;9.176;2022-12-18T00:51:24;48.50;42.50;26.00
26185;PMS7003;20067;48.764;9.176;2022-12-18T00:53:50;47.00;42.50;23.50
26185;PMS7003;20067;48.764;9.176;2022-12-18T00:56:16;52.00;41.50;20.00
26185;PMS7003;20067;48.764;9.176;2022-12-18T00:58:42;45.00;43.50;23.00
26185;PMS7003;20067;48.764;9.176;2022-12-18T01:01:08;53.00;48.50;26.50
26185;PMS7003;20067;48.764;9.176;2022-12-18T01:03:33;50.50;47.50;22.50
26185;PMS7003;20067;48.764;9.176;2022-12-18T01:05:59;42.50;42.00;24.50
26185;PMS7003;20067;48.764;9.176;2022-12-18T01:08:29;50.00;42.50;25.00
26185;PMS7003;20067;48.764;9.176;2022-12-18T01:10:55;39.50;35.50;20.00
26185;PMS7003;20067;48.764;9.176;2022-12-18T01:13:21;53.50;48.50;22.00
26185;PMS7003;20067;48.764;9.176;2022-12-18T01:15:50;41.50;32.50;15.50
26185;PMS7003;20067;48.764;9.176;2022-12-18T01:18:15;43.00;36.50;22.00
26185;PMS7003;20067;48.764;9.176;2022-12-18T01:20:41;53.00;45.50;20.00
26185;PMS7003;20067;48.764;9.176;2022-12-18T01:23:07;39.00;35.00;19.50
26185;PMS7003;20067;48.764;9.176;2022-12-18T01:25:33;52.00;48.50;25.50
26185;PMS7003;20067;48.764;9.176;2022-12-18T01:28:01;65.00;53.50;29.00
26185;PMS7003;20067;48.764;9.176;2022-12-18T01:30:27;52.00;44.00;22.00
26185;PMS7003;20067;48.764;9.176;2022-12-18T01:32:53;51.00;42.00;19.50
26185;PMS7003;20067;48.764;9.176;2022-12-18T01:35:20;50.50;40.00;22.50
26185;PMS7003;20067;48.764;9.176;2022-12-18T01:37:45;40.00;32.50;18.00
26185;PMS7003;20067;48.764;9.176;2022-12-18T01:40:11;45.00;39.50;22.00
26185;PMS7003;20067;48.764;9.176;2022-12-18T01:42:37;51.50;40.50;20.00
26185;PMS7003;20067;48.764;9.176;2022-12-18T01:52:37;65.50;57.00;30.00
26185;PMS7003;20067;48.764;9.176;2022-12-18T01:55:05;52.50;43.50;23.50
26185;PMS7003;20067;48.764;9.176;2022-12-18T01:57:32;42.00;37.00;17.50
26185;PMS7003;20067;48.764;9.176;2022-12-18T02:00:04;46.50;43.50;24.00
26185;PMS7003;20067;48.764;9.176;2022-12-18T02:02:33;56.00;47.50;24.50
26185;PMS7003;20067;48.764;9.176;2022-12-18T02:04:58;53.50;42.50;25.00
26185;PMS7003;20067;48.764;9.176;2022-12-18T02:12:59;40.50;39.00;17.00
26185;PMS7003;20067;48.764;9.176;2022-12-18T02:15:32;57.00;48.50;23.50
26185;PMS7003;20067;48.764;9.176;2022-12-18T02:18:10;39.00;34.50;16.50
26185;PMS7003;20067;48.764;9.176;2022-12-18T02:26:28;47.50;39.50;21.00
26185;PMS7003;20067;48.764;9.176;2022-12-18T02:29:08;61.00;51.50;28.00
26185;PMS7003;20067;48.764;9.176;2022-12-18T02:31:48;47.00;36.50;19.00
26185;PMS7003;20067;48.764;9.176;2022-12-18T02:34:19;44.50;39.00;20.00
26185;PMS7003;20067;48.764;9.176;2022-12-18T02:36:48;37.50;35.50;20.50
26185;PMS7003;20067;48.764;9.176;2022-12-18T02:39:16;40.00;30.50;15.50
26185;PMS7003;20067;48.764;9.176;2022-12-18T02:41:42;39.50;39.00;17.50
26185;PMS7003;20067;48.764;9.176;2022-12-18T02:44:10;38.00;36.50;18.50
26185;PMS7003;20067;48.764;9.176;2022-12-18T02:55:07;45.00;40.50;22.00
26185;PMS7003;20067;48.764;9.176;2022-12-18T02:57:46;45.50;41.50;23.00
26185;PMS7003;20067;48.764;9.176;2022-12-18T03:00:19;40.00;35.50;19.00
26185;PMS7003;20067;48.764;9.176;2022-12-18T03:02:47;36.50;33.50;18.00
26185;PMS7003;20067;48.764;9.176;2022-12-18T03:05:25;47.50;38.50;20.00
26185;PMS7003;20067;48.764;9.176;2022-12-18T03:08:08;45.50;39.50;20.00
26185;PMS7003;20067;48.764;9.176;2022-12-18T03:10:41;47.50;42.00;23.00
26185;PMS7003;20067;48.764;9.176;2022-12-18T03:13:13;45.00;36.00;18.00
26185;PMS7003;20067;48.764;9.176;2022-12-18T03:15:47;39.50;33.50;16.50
26185;PMS7003;20067;48.764;9.176;2022-12-18T03:18:32;39.00;34.00;19.00
26185;PMS7003;20067;48.764;9.176;2022-12-18T03:21:09;39.50;35.00;19.50
26185;PMS7003;20067;48.764;9.176;2022-12-18T03:23:42;43.50;39.50;18.00
26185;PMS7003;20067;48.764;9.176;2022-12-18T03:26:12;47.50;37.50;17.50
26185;PMS7003;20067;48.764;9.176;2022-12-18T03:28:43;46.50;41.50;16.00
26185;PMS7003;20067;48.764;9.176;2022-12-18T03:31:14;47.50;45.50;18.00
26185;PMS7003;20067;48.764;9.176;2022-12-18T03:36:19;38.50;32.50;14.00
26185;PMS7003;20067;48.764;9.176;2022-12-18T03:38:45;36.00;31.00;14.50
26185;PMS7003;20067;48.764;9.176;2022-12-18T03:44:03;36.50;32.00;14.00
26185;PMS7003;20067;48.764;9.176;2022-12-18T03:49:31;39.50;30.00;16.50
26185;PMS7003;20067;48.764;9.176;2022-12-18T03:52:20;37.50;31.00;14.50
26185;PMS7003;20067;48.764;9.176;2022-12-18T03:54:51;43.50;38.50;15.00
26185;PMS7003;20067;48.764;9.176;2022-12-18T03:57:19;34.50;31.50;18.00
26185;PMS7003;20067;48.764;9.176;2022-12-18T03:59:49;44.00;35.00;14.50
26185;PMS7003;20067;48.764;9.176;2022-12-18T04:02:19;39.50;34.00;18.00
26185;PMS7003;20067;48.764;9.176;2022-12-18T04:04:47;38.50;30.00;14.00
26185;PMS7003;20067;48.764;9.176;2022-12-18T04:07:17;35.50;26.50;10.00
26185;PMS7003;20067;48.764;9.176;2022-12-18T04:09:44;37.50;34.50;15.00
26185;PMS7003;20067;48.764;9.176;2022-12-18T04:12:11;31.50;31.50;12.50
26185;PMS7003;20067;48.764;9.176;2022-12-18T04:14:36;39.00;37.00;16.00
26185;PMS7003;20067;48.764;9.176;2022-12-18T04:17:02;36.50;35.00;14.50
26185;PMS7003;20067;48.764;9.176;2022-12-18T04:19:28;36.50;32.00;11.00
26185;PMS7003;20067;48.764;9.176;2022-12-18T04:21:54;43.50;36.00;12.50
26185;PMS7003;20067;48.764;9.176;2022-12-18T04:24:19;44.00;38.50;18.00
26185;PMS7003;20067;48.764;9.176;2022-12-18T04:26:45;34.50;29.50;12.00
26185;PMS7003;20067;48.764;9.176;2022-12-18T04:29:10;37.00;28.50;13.00
26185;PMS7003;20067;48.764;9.176;2022-12-18T04:31:36;35.50;35.50;18.00
26185;PMS7003;20067;48.764;9.176;2022-12-18T04:34:02;44.50;36.00;12.00
26185;PMS7003;20067;48.764;9.176;2022-12-18T04:36:28;37.00;34.00;12.50
26185;PMS7003;20067;48.764;9.176;2022-12-18T04:38:54;41.50;38.50;14.50
26185;PMS7003;20067;48.764;9.176;2022-12-18T04:41:20;28.00;26.00;8.00
26185;PMS7003;20067;48.764;9.176;2022-12-18T04:43:45;45.00;41.00;10.00
26185;PMS7003;20067;48.764;9.176;2022-12-18T04:46:11;43.00;37.00;8.50
26185;PMS7003;20067;48.764;9.176;2022-12-18T04:48:36;33.00;27.00;11.00
26185;PMS7003;20067;48.764;9.176;2022-12-18T04:51:03;37.00;31.50;13.50
26185;PMS7003;20067;48.764;9.176;2022-12-18T04:53:29;24.00;22.50;11.00
26185;PMS7003;20067;48.764;9.176;2022-12-18T04:58:34;42.00;37.00;16.00
26185;PMS7003;20067;48.764;9.176;2022-12-18T05:01:00;38.00;31.50;14.50
26185;PMS7003;20067;48.764;9.176;2022-12-18T05:03:26;36.00;34.50;16.00
26185;PMS7003;20067;48.764;9.176;2022-12-18T05:05:52;40.00;32.50;15.00
26185;PMS7003;20067;48.764;9.176;2022-12-18T05:08:18;29.50;28.50;16.00
26185;PMS7003;20067;48.764;9.176;2022-12-18T05:10:43;45.00;30.50;14.00
26185;PMS7003;20067;48.764;9.176;2022-12-18T05:13:09;31.50;26.50;12.50
26185;PMS7003;20067;48.764;9.176;2022-12-18T05:15:35;36.50;31.50;14.50
26185;PMS7003;20067;48.764;9.176;2022-12-18T05:18:01;32.50;31.50;16.00
26185;PMS7003;20067;48.764;9.176;2022-12-18T05:20:28;38.00;34.50;18.00
26185;PMS7003;20067;48.764;9.176;2022-12-18T05:22:54;41.50;32.00;14.00
26185;PMS7003;20067;48.764;9.176;2022-12-18T05:25:20;34.00;31.50;15.50
26185;PMS7003;20067;48.764;9.176;2022-12-18T05:27:46;41.00;29.50;14.50
26185;PMS7003;20067;48.764;9.176;2022-12-18T05:30:12;44.00;31.50;18.00
26185;PMS7003;20067;48.764;9.176;2022-12-18T05:32:39;39.50;34.00;20.00
26185;PMS7003;20067;48.764;9.176;2022-12-18T05:35:06;32.50;30.00;18.00
26185;PMS7003;20067;48.764;9.176;2022-12-18T05:37:33;36.50;35.00;18.00
26185;PMS7003;20067;48.764;9.176;2022-12-18T05:39:59;44.50;32.00;18.00
26185;PMS7003;20067;48.764;9.176;2022-12-18T05:42:25;32.50;29.00;16.00
26185;PMS7003;20067;48.764;9.176;2022-12-18T05:44:50;34.00;30.00;15.50
26185;PMS7003;20067;48.764;9.176;2022-12-18T05:47:16;37.50;32.50;17.50
26185;PMS7003;20067;48.764;9.176;2022-12-18T05:49:41;36.00;30.50;15.50
26185;PMS7003;20067;48.764;9.176;2022-12-18T05:52:07;42.00;34.50;18.00
26185;PMS7003;20067;48.764;9.176;2022-12-18T05:54:33;35.50;28.00;16.00
26185;PMS7003;20067;48.764;9.176;2022-12-18T05:56:59;34.50;30.00;14.50
26185;PMS7003;20067;48.764;9.176;2022-12-18T05:59:25;30.50;29.00;16.00
26185;PMS7003;20067;48.764;9.176;2022-12-18T06:01:51;33.50;28.50;13.50
26185;PMS7003;20067;48.764;9.176;2022-12-18T06:04:16;35.50;32.00;18.50
26185;PMS7003;20067;48.764;9.176;2022-12-18T06:06:42;35.50;32.00;16.00
26185;PMS7003;20067;48.764;9.176;2022-12-18T06:09:07;40.00;33.50;18.00
26185;PMS7003;20067;48.764;9.176;2022-12-18T06:11:35;44.50;32.00;16.00
26185;PMS7003;20067;48.764;9.176;2022-12-18T06:14:02;29.00;25.00;14.50
26185;PMS7003;20067;48.764;9.176;2022-12-18T06:16:29;29.50;28.00;12.50
26185;PMS7003;20067;48.764;9.176;2022-12-18T06:18:56;32.00;27.50;14.50
26185;PMS7003;20067;48.764;9.176;2022-12-18T06:21:22;38.00;37.00;18.00
26185;PMS7003;20067;48.764;9.176;2022-12-18T06:23:47;47.50;32.50;16.00
26185;PMS7003;20067;48.764;9.176;2022-12-18T06:26:13;32.50;31.50;14.50
26185;PMS7003;20067;48.764;9.176;2022-12-18T06:28:39;37.50;32.50;19.50
26185;PMS7003;20067;48.764;9.176;2022-12-18T06:31:05;44.50;32.50;14.00
26185;PMS7003;20067;48.764;9.176;2022-12-18T06:33:32;33.50;28.50;12.00
26185;PMS7003;20067;48.764;9.176;2022-12-18T06:36:00;38.50;33.00;17.00
26185;PMS7003;20067;48.764;9.176;2022-12-18T06:38:28;31.50;26.00;13.00
26185;PMS7003;20067;48.764;9.176;2022-12-18T06:40:53;38.00;31.50;18.00
26185;PMS7003;20067;48.764;9.176;2022-12-18T06:43:19;30.50;25.50;14.00
26185;PMS7003;20067;48.764;9.176;2022-12-18T06:45:45;31.00;26.00;13.50
26185;PMS7003;20067;48.764;9.176;2022-12-18T06:48:14;36.00;28.50;14.50
26185;PMS7003;20067;48.764;9.176;2022-12-18T06:50:41;27.50;24.50;13.00
26185;PMS7003;20067;48.764;9.176;2022-12-18T06:53:07;37.00;34.50;14.50
26185;PMS7003;20067;48.764;9.176;2022-12-18T06:55:33;24.00;24.00;10.50
26185;PMS7003;20067;48.764;9.176;2022-12-18T06:57:58;38.50;34.00;10.50
26185;PMS7003;20067;48.764;9.176;2022-12-18T07:00:24;38.50;36.50;12.00
26185;PMS7003;20067;48.764;9.176;2022-12-18T07:02:49;33.00;30.50;10.50
26185;PMS7003;20067;48.764;9.176;2022-12-18T07:05:15;38.50;35.00;13.00
26185;PMS7003;20067;48.764;9.176;2022-12-18T07:07:41;33.00;32.50;14.00
26185;PMS7003;20067;48.764;9.176;2022-12-18T07:10:06;26.00;25.00;10.00
26185;PMS7003;20067;48.764;9.176;2022-12-18T07:12:32;36.00;31.50;10.00
26185;PMS7003;20067;48.764;9.176;2022-12-18T07:14:58;30.00;29.00;12.00
26185;PMS7003;20067;48.764;9.176;2022-12-18T07:17:23;37.50;32.50;15.00
26185;PMS7003;20067;48.764;9.176;2022-12-18T07:19:49;32.00;28.50;14.00
26185;PMS7003;20067;48.764;9.176;2022-12-18T07:22:14;31.00;28.00;14.00
26185;PMS7003;20067;48.764;9.176;2022-12-18T07:24:40;34.50;31.00;14.00
26185;PMS7003;20067;48.764;9.176;2022-12-18T07:27:05;29.00;27.00;15.50
26185;PMS7003;20067;48.764;9.176;2022-12-18T07:29:31;28.50;27.00;14.00
26185;PMS7003;20067;48.764;9.176;2022-12-18T07:31:56;32.50;26.00;14.00
26185;PMS7003;20067;48.764;9.176;2022-12-18T07:34:22;36.50;27.50;13.50
26185;PMS7003;20067;48.764;9.176;2022-12-18T07:36:48;34.00;30.50;13.50
26185;PMS7003;20067;48.764;9.176;2022-12-18T07:39:13;33.50;31.50;17.00
26185;PMS7003;20067;48.764;9.176;2022-12-18T07:41:39;36.50;32.50;15.00
26185;PMS7003;20067;48.764;9.176;2022-12-18T07:44:10;37.00;28.50;13.50
26185;PMS7003;20067;48.764;9.176;2022-12-18T07:46:36;33.50;29.00;17.00
26185;PMS7003;20067;48.764;9.176;2022-12-18T07:49:02;28.00;28.00;14.50
26185;PMS7003;20067;48.764;9.176;2022-12-18T07:51:28;32.50;29.50;14.50
26185;PMS7003;20067;48.764;9.176;2022-12-18T07:53:54;28.00;25.50;14.00
26185;PMS7003;20067;48.764;9.176;2022-12-18T07:56:19;23.50;23.50;14.00
26185;PMS7003;20067;48.764;9.176;2022-12-18T07:58:46;40.50;28.50;14.00
26185;PMS7003;20067;48.764;9.176;2022-12-18T08:01:12;34.00;26.50;11.50
26185;PMS7003;20067;48.764;9.176;2022-12-18T08:03:38;38.00;34.50;15.50
26185;PMS7003;20067;48.764;9.176;2022-12-18T08:06:06;43.50;32.00;15.50
26185;PMS7003;20067;48.764;9.176;2022-12-18T08:08:33;41.00;31.00;16.00
26185;PMS7003;20067;48.764;9.176;2022-12-18T08:11:00;32.50;28.00;14.50
26185;PMS7003;20067;48.764;9.176;2022-12-18T08:13:26;35.00;28.00;15.00
26185;PMS7003;20067;48.764;9.176;2022-12-18T08:15:59;37.50;33.00;17.00
26185;PMS7003;20067;48.764;9.176;2022-12-18T08:18:29;36.50;33.00;18.00
26185;PMS7003;20067;48.764;9.176;2022-12-18T08:20:56;41.00;34.50;17.00
26185;PMS7003;20067;48.764;9.176;2022-12-18T08:23:22;48.50;42.50;18.00
26185;PMS7003;20067;48.764;9.176;2022-12-18T08:25:47;40.50;33.50;19.00
26185;PMS7003;20067;48.764;9.176;2022-12-18T08:28:13;29.00;29.00;15.00
26185;PMS7003;20067;48.764;9.176;2022-12-18T08:30:39;37.00;35.00;21.00
26185;PMS7003;20067;48.764;9.176;2022-12-18T08:33:04;37.00;32.00;16.50
26185;PMS7003;20067;48.764;9.176;2022-12-18T08:35:30;31.50;27.50;14.00
26185;PMS7003;20067;48.764;9.176;2022-12-18T08:38:00;39.00;33.00;18.00
26185;PMS7003;20067;48.764;9.176;2022-12-18T08:40:26;39.00;28.50;16.50
26185;PMS7003;20067;48.764;9.176;2022-12-18T08:42:51;43.00;38.00;18.50
26185;PMS7003;20067;48.764;9.176;2022-12-18T08:45:36;38.50;34.50;20.50
26185;PMS7003;20067;48.764;9.176;2022-12-18T08:48:02;33.50;31.00;18.00
26185;PMS7003;20067;48.764;9.176;2022-12-18T08:50:27;46.00;41.50;20.00
26185;PMS7003;20067;48.764;9.176;2022-12-18T08:52:53;33.00;28.50;15.00
26185;PMS7003;20067;48.764;9.176;2022-12-18T08:55:18;42.50;37.00;17.50
26185;PMS7003;20067;48.764;9.176;2022-12-18T08:57:47;41.00;34.00;17.00
26185;PMS7003;20067;48.764;9.176;2022-12-18T09:00:14;40.50;37.50;22.00
26185;PMS7003;20067;48.764;9.176;2022-12-18T09:02:40;37.00;33.50;18.50
26185;PMS7003;20067;48.764;9.176;2022-12-18T09:05:05;42.50;36.00;17.50
26185;PMS7003;20067;48.764;9.176;2022-12-18T09:07:31;32.50;30.00;16.00
26185;PMS7003;20067;48.764;9.176;2022-12-18T09:09:57;48.00;40.00;15.50
26185;PMS7003;20067;48.764;9.176;2022-12-18T09:12:23;46.50;42.50;17.50
26185;PMS7003;20067;48.764;9.176;2022-12-18T09:14:48;48.00;43.50;21.50
26185;PMS7003;20067;48.764;9.176;2022-12-18T09:17:14;45.00;39.50;18.00
26185;PMS7003;20067;48.764;9.176;2022-12-18T09:19:39;52.50;44.00;19.00
26185;PMS7003;20067;48.764;9.176;2022-12-18T09:22:05;45.00;42.00;21.00
26185;PMS7003;20067;48.764;9.176;2022-12-18T09:24:31;45.50;41.50;13.00
26185;PMS7003;20067;48.764;9.176;2022-12-18T09:26:56;67.00;63.00;17.50
26185;PMS7003;20067;48.764;9.176;2022-12-18T09:29:22;41.00;36.50;18.50
26185;PMS7003;20067;48.764;9.176;2022-12-18T09:31:47;45.50;41.00;19.50
26185;PMS7003;20067;48.764;9.176;2022-12-18T09:34:14;43.50;37.50;17.00
26185;PMS7003;20067;48.764;9.176;2022-12-18T09:36:40;47.50;40.00;22.50
26185;PMS7003;20067;48.764;9.176;2022-12-18T09:39:06;39.00;31.50;16.50
26185;PMS7003;20067;48.764;9.176;2022-12-18T09:44:11;49.00;43.00;22.00
26185;PMS7003;20067;48.764;9.176;2022-12-18T09:49:30;49.00;45.00;21.50
26185;PMS7003;20067;48.764;9.176;2022-12-18T09:52:02;54.50;49.50;23.50
26185;PMS7003;20067;48.764;9.176;2022-12-18T09:54:40;52.00;46.50;20.00
26185;PMS7003;20067;48.764;9.176;2022-12-18T09:57:10;60.50;47.00;19.00
26185;PMS7003;20067;48.764;9.176;2022-12-18T09:59:42;53.50;43.50;22.00
26185;PMS7003;20067;48.764;9.176;2022-12-18T10:02:20;54.00;46.50;21.50
26185;PMS7003;20067;48.764;9.176;2022-12-18T10:04:53;56.00;50.00;23.00
26185;PMS7003;20067;48.764;9.176;2022-12-18T10:07:47;49.50;42.50;23.50
26185;PMS7003;20067;48.764;9.176;2022-12-18T10:15:57;58.00;46.50;24.00
26185;PMS7003;20067;48.764;9.176;2022-12-18T10:18:42;52.00;46.50;25.50
26185;PMS7003;20067;48.764;9.176;2022-12-18T10:21:19;51.50;46.50;25.50
26185;PMS7003;20067;48.764;9.176;2022-12-18T10:23:54;67.00;59.00;31.00
26185;PMS7003;20067;48.764;9.176;2022-12-18T10:26:40;54.50;46.50;29.50
26185;PMS7003;20067;48.764;9.176;2022-12-18T10:29:09;51.00;43.50;24.50
26185;PMS7003;20067;48.764;9.176;2022-12-18T10:31:37;53.00;46.00;29.00
26185;PMS7003;20067;48.764;9.176;2022-12-18T10:34:03;73.00;60.00;30.50
26185;PMS7003;20067;48.764;9.176;2022-12-18T10:36:28;52.50;50.00;28.00
26185;PMS7003;20067;48.764;9.176;2022-12-18T10:39:13;50.00;46.75;22.75
26185;PMS7003;20067;48.764;9.176;2022-12-18T10:41:44;56.75;48.75;26.00
26185;PMS7003;20067;48.764;9.176;2022-12-18T10:46:46;51.00;45.00;23.75
26185;PMS7003;20067;48.764;9.176;2022-12-18T10:52:07;49.00;43.75;23.25
26185;PMS7003;20067;48.764;9.176;2022-12-18T10:54:37;54.00;46.75;24.00
26185;PMS7003;20067;48.764;9.176;2022-12-18T10:59:54;49.75;42.50;25.50
26185;PMS7003;20067;48.764;9.176;2022-12-18T11:02:55;46.00;38.50;20.00
26185;PMS7003;20067;48.764;9.176;2022-12-18T11:05:27;52.75;41.25;22.00
26185;PMS7003;20067;48.764;9.176;2022-12-18T11:07:58;42.25;36.50;18.00
26185;PMS7003;20067;48.764;9.176;2022-12-18T11:10:59;46.00;41.00;22.50
26185;PMS7003;20067;48.764;9.176;2022-12-18T11:13:21;44.00;38.00;19.25
26185;PMS7003;20067;48.764;9.176;2022-12-18T11:15:49;47.75;44.50;27.75
26185;PMS7003;20067;48.764;9.176;2022-12-18T11:20:50;43.75;38.00;22.00
26185;PMS7003;20067;48.764;9.176;2022-12-18T11:23:18;48.00;45.00;24.00
26185;PMS7003;20067;48.764;9.176;2022-12-18T11:25:54;48.75;40.75;26.25
26185;PMS7003;20067;48.764;9.176;2022-12-18T11:28:43;45.75;41.75;24.50
26185;PMS7003;20067;48.764;9.176;2022-12-18T11:31:27;60.00;51.50;25.50
26185;PMS7003;20067;48.764;9.176;2022-12-18T11:36:44;47.00;42.00;18.00
26185;PMS7003;20067;48.764;9.176;2022-12-18T11:42:09;39.00;32.50;16.00
26185;PMS7003;20067;48.764;9.176;2022-12-18T11:44:49;41.50;35.00;18.00
26185;PMS7003;20067;48.764;9.176;2022-12-18T11:47:31;37.00;31.50;13.50
26185;PMS7003;20067;48.764;9.176;2022-12-18T11:50:05;30.00;27.50;10.00
26185;PMS7003;20067;48.764;9.176;2022-12-18T11:52:43;14.00;12.50;4.00
26185;PMS7003;20067;48.764;9.176;2022-12-18T11:55:18;33.50;29.00;12.00
26185;PMS7003;20067;48.764;9.176;2022-12-18T12:00:30;38.50;29.00;10.50
26185;PMS7003;20067;48.764;9.176;2022-12-18T12:05:56;19.00;19.00;7.00
26185;PMS7003;20067;48.764;9.176;2022-12-18T12:08:33;26.50;24.50;9.00
26185;PMS7003;20067;48.764;9.176;2022-12-18T12:16:37;38.50;34.00;16.50
26185;PMS7003;20067;48.764;9.176;2022-12-18T12:30:17;30.00;30.00;14.00
26185;PMS7003;20067;48.764;9.176;2022-12-18T12:36:19;41.50;34.50;15.50
26185;PMS7003;20067;48.764;9.176;2022-12-18T12:40:59;34.00;31.00;16.00
26185;PMS7003;20067;48.764;9.176;2022-12-18T12:46:05;37.50;31.00;16.00
26185;PMS7003;20067;48.764;9.176;2022-12-18T12:48:37;33.00;27.00;13.00
26185;PMS7003;20067;48.764;9.176;2022-12-18T12:51:13;37.00;33.00;17.50
26185;PMS7003;20067;48.764;9.176;2022-12-18T12:53:41;39.50;30.00;16.00
26185;PMS7003;20067;48.764;9.176;2022-12-18T12:56:06;49.50;40.50;20.50
26185;PMS7003;20067;48.764;9.176;2022-12-18T12:58:51;42.00;32.50;14.50
26185;PMS7003;20067;48.764;9.176;2022-12-18T13:04:34;40.00;33.50;20.00
26185;PMS7003;20067;48.764;9.176;2022-12-18T13:13:14;35.50;29.00;12.50
26185;PMS7003;20067;48.764;9.176;2022-12-18T13:20:47;42.00;33.00;17.50
26185;PMS7003;20067;48.764;9.176;2022-12-18T13:25:58;48.50;43.50;20.00
26185;PMS7003;20067;48.764;9.176;2022-12-18T13:31:11;32.00;31.00;14.50
26185;PMS7003;20067;48.764;9.176;2022-12-18T13:33:39;51.50;42.50;21.50
26185;PMS7003;20067;48.764;9.176;2022-12-18T13:38:47;43.50;38.50;20.50
26185;PMS7003;20067;48.764;9.176;2022-12-18T13:41:38;56.00;47.50;20.00
26185;PMS7003;20067;48.764;9.176;2022-12-18T13:47:00;41.00;34.00;18.50
26185;PMS7003;20067;48.764;9.176;2022-12-18T13:49:41;54.50;43.00;21.00
26185;PMS7003;20067;48.764;9.176;2022-12-18T13:52:19;43.00;39.00;18.00
26185;PMS7003;20067;48.764;9.176;2022-12-18T13:55:01;40.00;31.00;17.50
26185;PMS7003;20067;48.764;9.176;2022-12-18T13:57:35;48.00;36.00;18.00
26185;PMS7003;20067;48.764;9.176;2022-12-18T14:02:52;47.00;39.50;19.00
26185;PMS7003;20067;48.764;9.176;2022-12-18T14:05:31;34.00;32.00;16.50
26185;PMS7003;20067;48.764;9.176;2022-12-18T14:08:06;36.00;29.00;16.00
26185;PMS7003;20067;48.764;9.176;2022-12-18T14:10:35;40.50;35.00;20.00
26185;PMS7003;20067;48.764;9.176;2022-12-18T14:13:06;48.50;41.00;18.00
26185;PMS7003;20067;48.764;9.176;2022-12-18T14:15:36;53.00;39.50;18.00
26185;PMS7003;20067;48.764;9.176;2022-12-18T14:20:52;47.00;39.50;17.50
26185;PMS7003;20067;48.764;9.176;2022-12-18T14:23:38;53.50;38.50;20.00
26185;PMS7003;20067;48.764;9.176;2022-12-18T14:29:28;46.50;42.00;20.50
26185;PMS7003;20067;48.764;9.176;2022-12-18T14:34:37;56.50;39.50;21.00
26185;PMS7003;20067;48.764;9.176;2022-12-18T14:37:02;51.00;45.50;22.50
26185;PMS7003;20067;48.764;9.176;2022-12-18T14:39:28;42.00;35.50;19.50
26185;PMS7003;20067;48.764;9.176;2022-12-18T14:41:54;51.00;40.00;20.00
26185;PMS7003;20067;48.764;9.176;2022-12-18T14:44:20;43.50;35.50;19.00
26185;PMS7003;20067;48.764;9.176;2022-12-18T14:46:46;50.50;44.00;21.50
26185;PMS7003;20067;48.764;9.176;2022-12-18T14:51:56;61.50;47.00;25.00
26185;PMS7003;20067;48.764;9.176;2022-12-18T14:54:29;53.50;42.00;20.00
26185;PMS7003;20067;48.764;9.176;2022-12-18T14:57:01;49.00;43.00;21.00
26185;PMS7003;20067;48.764;9.176;2022-12-18T14:59:29;49.50;41.50;24.00
26185;PMS7003;20067;48.764;9.176;2022-12-18T15:04:46;46.00;38.50;20.50
26185;PMS7003;20067;48.764;9.176;2022-12-18T15:10:24;37.50;31.00;16.00
26185;PMS7003;20067;48.764;9.176;2022-12-18T15:12:45;56.00;47.00;24.00
26185;PMS7003;20067;48.764;9.176;2022-12-18T15:18:01;50.50;42.50;22.00
26185;PMS7003;20067;48.764;9.176;2022-12-18T15:20:40;46.50;41.00;23.50
26185;PMS7003;20067;48.764;9.176;2022-12-18T15:26:10;61.50;47.00;25.00
26185;PMS7003;20067;48.764;9.176;2022-12-18T15:28:48;46.00;43.00;24.50
26185;PMS7003;20067;48.764;9.176;2022-12-18T15:31:24;53.50;47.00;22.00
26185;PMS7003;20067;48.764;9.176;2022-12-18T15:36:22;53.00;44.00;24.00
26185;PMS7003;20067;48.764;9.176;2022-12-18T15:38:49;45.50;41.00;25.00
26185;PMS7003;20067;48.764;9.176;2022-12-18T15:41:16;52.50;44.50;23.50
26185;PMS7003;20067;48.764;9.176;2022-12-18T15:43:44;50.00;40.50;20.00
26185;PMS7003;20067;48.764;9.176;2022-12-18T15:48:40;51.00;47.00;22.00
26185;PMS7003;20067;48.764;9.176;2022-12-18T15:51:10;50.50;45.00;23.50
26185;PMS7003;20067;48.764;9.176;2022-12-18T15:53:40;53.50;47.50;23.00
26185;PMS7003;20067;48.764;9.176;2022-12-18T15:56:13;45.00;40.00;20.50
26185;PMS7003;20067;48.764;9.176;2022-12-18T15:58:58;66.50;60.00;28.50
26185;PMS7003;20067;48.764;9.176;2022-12-18T16:01:25;50.50;44.00;22.50
26185;PMS7003;20067;48.764;9.176;2022-12-18T16:03:52;42.00;35.50;20.50
26185;PMS7003;20067;48.764;9.176;2022-12-18T16:06:18;44.00;37.50;21.00
26185;PMS7003;20067;48.764;9.176;2022-12-18T16:08:44;50.00;40.00;21.50
26185;PMS7003;20067;48.764;9.176;2022-12-18T16:11:21;42.50;36.50;22.00
26185;PMS7003;20067;48.764;9.176;2022-12-18T16:14:10;49.00;40.50;22.00
26185;PMS7003;20067;48.764;9.176;2022-12-18T16:16:54;43.50;41.00;21.00
26185;PMS7003;20067;48.764;9.176;2022-12-18T16:19:24;60.50;45.00;22.50
26185;PMS7003;20067;48.764;9.176;2022-12-18T16:21:52;48.00;33.00;18.00
26185;PMS7003;20067;48.764;9.176;2022-12-18T16:24:21;54.00;49.50;27.00
26185;PMS7003;20067;48.764;9.176;2022-12-18T16:26:48;48.50;38.00;22.50
26185;PMS7003;20067;48.764;9.176;2022-12-18T16:29:14;48.00;43.00;20.00
26185;PMS7003;20067;48.764;9.176;2022-12-18T16:31:40;54.50;44.50;24.00